Time;durP1;ratioP1;P1;durP2;ratioP2;P2;SDS_P1;SDS_P2;PMS_P1;PMS_P2;Temp;Humidity;BMP_temperature;BMP_pressure;BME280_temperature;BME280_humidity;BME280_pressure;Samples;Min_cycle;Max_cycle;Signal;HPM_P1;HPM_P2
2022/12/10 00:02:20;0.00;0.00;0.62;0.00;0.00;0.62;8.70;6.27;;;20.70;23.90;;;;;;2266869;61;20410;-63
2022/12/10 00:05:07;0.00;0.00;0.62;0.00;0.00;0.62;7.57;5.97;;;20.70;23.80;;;;;;2267465;61;20355;-63
2022/12/10 00:07:52;0.00;0.00;0.62;0.00;0.00;0.62;7.17;5.87;;;20.70;23.80;;;;;;2267347;61;20448;-63
2022/12/10 00:10:39;0.00;0.00;0.62;0.00;0.00;0.62;9.00;6.47;;;20.70;24.30;;;;;;2267307;61;20358;-63
2022/12/10 00:13:24;0.00;0.00;0.62;0.00;0.00;0.62;7.90;6.03;;;20.70;23.70;;;;;;2267467;61;20783;-63
2022/12/10 00:16:12;0.00;0.00;0.62;0.00;0.00;0.62;8.23;6.67;;;20.60;23.60;;;;;;2266990;61;20875;-63
2022/12/10 00:18:57;0.00;0.00;0.62;0.00;0.00;0.62;9.87;6.87;;;20.60;23.60;;;;;;2267180;61;20899;-62
2022/12/10 00:21:44;0.00;0.00;0.62;0.00;0.00;0.62;10.03;6.87;;;20.60;23.50;;;;;;2267601;61;20363;-63
2022/12/10 00:24:29;0.00;0.00;0.62;0.00;0.00;0.62;9.13;7.37;;;20.60;23.60;;;;;;2266627;61;20351;-63
2022/12/10 00:27:14;0.00;0.00;0.62;0.00;0.00;0.62;8.43;6.73;;;20.60;23.60;;;;;;2264593;61;20908;-63
2022/12/10 00:29:58;0.00;0.00;0.62;0.00;0.00;0.62;7.93;6.77;;;20.60;23.50;;;;;;2264801;61;20527;-63
2022/12/10 00:32:43;0.00;0.00;0.62;0.00;0.00;0.62;9.87;7.30;;;20.50;23.50;;;;;;2264545;61;20372;-63
2022/12/10 00:35:28;0.00;0.00;0.62;0.00;0.00;0.62;9.60;8.13;;;20.50;23.40;;;;;;2264437;61;21260;-63
2022/12/10 00:38:14;0.00;0.00;0.62;0.00;0.00;0.62;11.03;7.67;;;20.50;23.40;;;;;;2264164;61;20359;-62
2022/12/10 00:40:59;0.00;0.00;0.62;0.00;0.00;0.62;9.10;7.50;;;20.50;23.50;;;;;;2264713;61;20376;-64
2022/12/10 00:43:45;0.00;0.00;0.62;0.00;0.00;0.62;10.13;8.27;;;20.40;23.40;;;;;;2264341;61;20398;-63
2022/12/10 00:46:29;0.00;0.00;0.62;0.00;0.00;0.62;10.13;7.40;;;20.40;23.40;;;;;;2264068;61;20356;-63
2022/12/10 00:49:14;0.00;0.00;0.62;0.00;0.00;0.62;9.80;7.50;;;20.40;23.40;;;;;;2264277;61;20419;-63
2022/12/10 00:51:59;0.00;0.00;0.62;0.00;0.00;0.62;9.70;7.47;;;20.40;23.40;;;;;;2264359;61;20356;-63
2022/12/10 00:54:45;0.00;0.00;0.62;0.00;0.00;0.62;10.73;7.20;;;20.40;23.40;;;;;;2264321;61;20391;-62
2022/12/10 00:57:30;0.00;0.00;0.62;0.00;0.00;0.62;11.33;8.23;;;20.40;23.40;;;;;;2264435;61;20360;-63
2022/12/10 01:00:15;0.00;0.00;0.62;0.00;0.00;0.62;10.90;7.70;;;20.40;23.40;;;;;;2264047;61;20395;-63
2022/12/10 01:03:00;0.00;0.00;0.62;0.00;0.00;0.62;9.00;8.03;;;20.30;23.30;;;;;;2263980;61;20471;-63
2022/12/10 01:05:45;0.00;0.00;0.62;0.00;0.00;0.62;9.83;8.13;;;20.30;23.30;;;;;;2264390;61;20818;-63
2022/12/10 01:08:30;0.00;0.00;0.62;0.00;0.00;0.62;11.33;8.73;;;20.30;23.30;;;;;;2263453;61;20877;-63
2022/12/10 01:11:20;0.00;0.00;0.62;0.00;0.00;0.62;11.80;8.40;;;20.30;23.30;;;;;;2264093;61;20364;-62
2022/12/10 01:14:06;0.00;0.00;0.62;0.00;0.00;0.62;14.10;9.23;;;20.30;23.30;;;;;;2264716;61;20384;-63
2022/12/10 01:16:56;0.00;0.00;0.62;0.00;0.00;0.62;10.50;8.43;;;20.30;23.30;;;;;;2264261;61;20406;-64
2022/12/10 01:19:41;0.00;0.00;0.62;0.00;0.00;0.62;12.40;8.73;;;20.20;23.30;;;;;;2264401;61;20384;-64
2022/12/10 01:22:25;0.00;0.00;0.62;0.00;0.00;0.62;11.03;8.33;;;20.20;23.30;;;;;;2264593;61;20906;-63
2022/12/10 01:25:10;0.00;0.00;0.62;0.00;0.00;0.62;10.47;7.60;;;20.20;23.30;;;;;;2263755;61;20934;-63
2022/12/10 01:27:58;0.00;0.00;0.62;0.00;0.00;0.62;12.00;8.83;;;20.20;23.30;;;;;;2264662;61;20352;-63
2022/12/10 01:30:42;0.00;0.00;0.62;0.00;0.00;0.62;10.50;7.73;;;20.20;23.30;;;;;;2264208;61;20364;-62
2022/12/10 01:33:28;0.00;0.00;0.62;0.00;0.00;0.62;9.33;7.63;;;20.10;23.20;;;;;;2264415;61;20383;-63
2022/12/10 01:36:16;0.00;0.00;0.62;0.00;0.00;0.62;8.90;7.00;;;20.10;23.20;;;;;;2264570;61;20345;-62
2022/12/10 01:39:04;0.00;0.00;0.62;0.00;0.00;0.62;8.47;7.10;;;20.10;23.20;;;;;;2264005;61;20395;-63
2022/12/10 01:41:52;0.00;0.00;0.62;0.00;0.00;0.62;9.63;7.23;;;20.10;23.20;;;;;;2264420;61;20394;-63
2022/12/10 01:45:07;0.00;0.00;0.62;0.00;0.00;0.62;11.73;8.20;;;20.10;23.20;;;;;;2264162;61;20938;-64
2022/12/10 01:47:52;0.00;0.00;0.62;0.00;0.00;0.62;12.10;7.67;;;20.10;23.20;;;;;;2264173;61;20356;-63
2022/12/10 01:50:37;0.00;0.00;0.62;0.00;0.00;0.62;9.97;8.27;;;20.00;23.20;;;;;;2264741;61;20914;-63
2022/12/10 01:53:23;0.00;0.00;0.62;0.00;0.00;0.62;11.10;8.00;;;20.00;23.20;;;;;;2263447;61;20404;-63
2022/12/10 01:56:10;0.00;0.00;0.62;0.00;0.00;0.62;12.20;9.03;;;20.00;23.20;;;;;;2264334;61;20396;-62
2022/12/10 01:58:56;0.00;0.00;0.62;0.00;0.00;0.62;12.60;8.87;;;20.00;23.20;;;;;;2264377;61;20446;-63
2022/12/10 02:01:52;0.00;0.00;0.62;0.00;0.00;0.62;10.50;7.97;;;20.00;23.20;;;;;;2264305;61;20409;-62
2022/12/10 02:04:49;0.00;0.00;0.62;0.00;0.00;0.62;10.20;7.30;;;20.00;23.20;;;;;;2264194;61;20880;-63
2022/12/10 02:07:50;0.00;0.00;0.62;0.00;0.00;0.62;10.90;8.70;;;19.90;23.20;;;;;;2263761;61;20406;-63
2022/12/10 02:10:51;0.00;0.00;0.62;0.00;0.00;0.62;10.40;7.87;;;19.90;23.20;;;;;;2264300;61;20376;-61
2022/12/10 02:13:41;0.00;0.00;0.62;0.00;0.00;0.62;9.73;7.40;;;19.90;23.20;;;;;;2264096;61;20389;-62
2022/12/10 02:16:34;0.00;0.00;0.62;0.00;0.00;0.62;11.07;7.97;;;19.90;23.20;;;;;;2263928;61;20418;-62
2022/12/10 02:19:31;0.00;0.00;0.62;0.00;0.00;0.62;11.33;8.20;;;19.90;23.20;;;;;;2264035;61;20936;-62
2022/12/10 02:22:19;0.00;0.00;0.62;0.00;0.00;0.62;11.20;8.57;;;19.90;23.20;;;;;;2263741;61;20364;-63
2022/12/10 02:25:07;0.00;0.00;0.62;0.00;0.00;0.62;10.37;7.63;;;19.80;23.10;;;;;;2264212;61;20406;-64
2022/12/10 02:28:03;0.00;0.00;0.62;0.00;0.00;0.62;9.40;7.37;;;19.90;23.20;;;;;;2263801;61;20475;-63
2022/12/10 02:30:51;0.00;0.00;0.62;0.00;0.00;0.62;10.43;8.27;;;19.80;23.10;;;;;;2263655;61;20959;-63
2022/12/10 02:33:42;0.00;0.00;0.62;0.00;0.00;0.62;11.60;8.10;;;19.80;23.20;;;;;;2261059;61;20368;-63
2022/12/10 02:36:32;0.00;0.00;0.62;0.00;0.00;0.62;10.00;7.20;;;19.80;23.10;;;;;;2264217;61;20807;-63
2022/12/10 02:39:22;0.00;0.00;0.62;0.00;0.00;0.62;9.30;7.87;;;19.70;23.10;;;;;;2263709;61;20384;-64
2022/12/10 02:42:12;0.00;0.00;0.62;0.00;0.00;0.62;9.50;7.27;;;19.70;23.10;;;;;;2264134;61;20363;-64
2022/12/10 02:45:01;0.00;0.00;0.62;0.00;0.00;0.62;8.73;6.87;;;19.80;23.10;;;;;;2263524;61;20391;-63
2022/12/10 02:47:48;0.00;0.00;0.62;0.00;0.00;0.62;9.13;7.20;;;19.70;23.10;;;;;;2264035;61;20364;-64
2022/12/10 02:50:34;0.00;0.00;0.62;0.00;0.00;0.62;9.67;7.33;;;19.70;23.10;;;;;;2263930;61;20388;-63
2022/12/10 02:53:20;0.00;0.00;0.62;0.00;0.00;0.62;7.50;6.33;;;19.70;23.10;;;;;;2263614;61;20788;-63
2022/12/10 02:56:19;0.00;0.00;0.62;0.00;0.00;0.62;7.73;6.60;;;19.70;23.10;;;;;;2264557;61;20345;-63
2022/12/10 02:59:16;0.00;0.00;0.62;0.00;0.00;0.62;8.33;6.77;;;19.60;23.00;;;;;;2263396;61;20923;-64
2022/12/10 03:02:12;0.00;0.00;0.62;0.00;0.00;0.62;9.27;6.70;;;19.70;23.10;;;;;;2263749;61;20352;-63
2022/12/10 03:05:05;0.00;0.00;0.62;0.00;0.00;0.62;8.03;6.10;;;19.60;23.60;;;;;;2264481;61;20439;-63
2022/12/10 03:07:57;0.00;0.00;0.62;0.00;0.00;0.62;8.10;6.03;;;19.60;23.00;;;;;;2263627;61;20418;-63
2022/12/10 03:10:52;0.00;0.00;0.62;0.00;0.00;0.62;7.30;6.00;;;19.60;23.00;;;;;;2264282;61;20375;-63
2022/12/10 03:13:45;0.00;0.00;0.62;0.00;0.00;0.62;7.83;6.90;;;19.60;23.00;;;;;;2263173;61;20636;-63
2022/12/10 03:16:35;0.00;0.00;0.62;0.00;0.00;0.62;8.20;6.43;;;19.60;23.00;;;;;;2264161;61;20383;-63
2022/12/10 03:19:28;0.00;0.00;0.62;0.00;0.00;0.62;8.10;5.80;;;19.60;23.00;;;;;;2264258;61;20430;-62
2022/12/10 03:22:19;0.00;0.00;0.62;0.00;0.00;0.62;6.70;5.80;;;19.60;23.00;;;;;;2263772;61;20372;-63
2022/12/10 03:25:06;0.00;0.00;0.62;0.00;0.00;0.62;8.30;6.33;;;19.50;23.00;;;;;;2263975;61;20356;-63
2022/12/10 03:27:55;0.00;0.00;0.62;0.00;0.00;0.62;7.33;6.10;;;19.50;22.90;;;;;;2264085;61;20368;-63
2022/12/10 03:30:43;0.00;0.00;0.62;0.00;0.00;0.62;8.23;6.50;;;19.50;22.90;;;;;;2263874;61;20364;-63
2022/12/10 03:33:28;0.00;0.00;0.62;0.00;0.00;0.62;6.73;5.40;;;19.50;22.90;;;;;;2264421;61;20367;-63
2022/12/10 03:36:14;0.00;0.00;0.62;0.00;0.00;0.62;8.83;7.07;;;19.50;22.90;;;;;;2263675;61;20359;-64
2022/12/10 03:39:01;0.00;0.00;0.62;0.00;0.00;0.62;6.60;5.43;;;19.50;22.90;;;;;;2263985;61;20455;-64
2022/12/10 03:41:46;0.00;0.00;0.62;0.00;0.00;0.62;6.60;4.97;;;19.50;22.90;;;;;;2264452;61;20772;-64
2022/12/10 03:44:34;0.00;0.00;0.62;0.00;0.00;0.62;6.57;5.30;;;19.50;22.90;;;;;;2263783;61;20406;-63
2022/12/10 03:47:20;0.00;0.00;0.62;0.00;0.00;0.62;7.47;6.20;;;19.50;22.90;;;;;;2263864;61;20356;-63
2022/12/10 03:50:06;0.00;0.00;0.62;0.00;0.00;0.62;7.37;6.20;;;19.40;22.90;;;;;;2264124;61;20416;-63
2022/12/10 03:52:51;0.00;0.00;0.62;0.00;0.00;0.62;9.10;6.80;;;19.40;22.90;;;;;;2263891;61;20411;-63
2022/12/10 03:55:37;0.00;0.00;0.62;0.00;0.00;0.62;7.60;5.50;;;19.40;22.90;;;;;;2264319;61;20403;-64
2022/12/10 03:58:22;0.00;0.00;0.62;0.00;0.00;0.62;8.00;6.27;;;19.40;22.90;;;;;;2263548;61;20415;-63
2022/12/10 04:01:07;0.00;0.00;0.62;0.00;0.00;0.62;8.70;6.27;;;19.40;22.90;;;;;;2264465;61;20363;-63
2022/12/10 04:03:51;0.00;0.00;0.62;0.00;0.00;0.62;7.50;6.20;;;19.40;22.90;;;;;;2265000;61;20888;-63
2022/12/10 04:06:38;0.00;0.00;0.62;0.00;0.00;0.62;7.30;5.30;;;19.40;23.00;;;;;;2264407;61;20904;-63
2022/12/10 04:09:23;0.00;0.00;0.62;0.00;0.00;0.62;9.53;6.97;;;19.40;23.00;;;;;;2264497;61;20426;-64
2022/12/10 04:12:09;0.00;0.00;0.62;0.00;0.00;0.62;7.53;5.80;;;19.40;23.00;;;;;;2264696;61;20409;-63
2022/12/10 04:17:57;0.00;0.00;0.62;0.00;0.00;0.62;7.80;6.03;;;19.40;23.00;;;;;;2264971;61;20360;-63
2022/12/10 04:26:52;0.00;0.00;0.62;0.00;0.00;0.62;6.73;4.93;;;19.30;23.00;;;;;;2265049;61;20421;-64
2022/12/10 04:29:39;0.00;0.00;0.62;0.00;0.00;0.62;7.53;5.17;;;19.30;23.00;;;;;;2264491;61;20379;-63
2022/12/10 04:32:27;0.00;0.00;0.62;0.00;0.00;0.62;7.70;5.70;;;19.30;23.00;;;;;;2264825;61;20365;-63
2022/12/10 04:35:12;0.00;0.00;0.62;0.00;0.00;0.62;8.27;6.60;;;19.30;23.00;;;;;;2264253;61;20423;-63
2022/12/10 04:37:56;0.00;0.00;0.62;0.00;0.00;0.62;6.57;4.97;;;19.30;22.90;;;;;;2264451;61;20360;-63
2022/12/10 04:40:41;0.00;0.00;0.62;0.00;0.00;0.62;5.33;4.77;;;19.30;23.00;;;;;;2264908;61;20437;-63
2022/12/10 04:43:26;0.00;0.00;0.62;0.00;0.00;0.62;7.73;5.83;;;19.30;22.90;;;;;;2264161;61;20356;-64
2022/12/10 04:46:13;0.00;0.00;0.62;0.00;0.00;0.62;7.00;5.23;;;19.30;22.90;;;;;;2264478;61;20444;-63
2022/12/10 04:48:57;0.00;0.00;0.62;0.00;0.00;0.62;6.30;5.27;;;19.20;22.90;;;;;;2264463;61;20815;-64
2022/12/10 04:51:43;0.00;0.00;0.62;0.00;0.00;0.62;7.30;5.70;;;19.20;22.90;;;;;;2264570;61;20387;-63
2022/12/10 04:54:28;0.00;0.00;0.62;0.00;0.00;0.62;7.37;5.40;;;19.20;22.90;;;;;;2264575;61;20395;-64
2022/12/10 04:57:14;0.00;0.00;0.62;0.00;0.00;0.62;6.50;4.90;;;19.20;22.90;;;;;;2264325;61;20820;-63
2022/12/10 04:59:59;0.00;0.00;0.62;0.00;0.00;0.62;6.17;5.33;;;19.20;22.90;;;;;;2264420;61;20474;-61
2022/12/10 05:02:48;0.00;0.00;0.62;0.00;0.00;0.62;6.87;5.10;;;19.20;22.90;;;;;;2264786;61;20923;-64
2022/12/10 05:05:34;0.00;0.00;0.62;0.00;0.00;0.62;7.20;5.60;;;19.20;22.90;;;;;;2264150;61;20513;-61
2022/12/10 05:08:19;0.00;0.00;0.62;0.00;0.00;0.62;6.07;4.87;;;19.20;22.90;;;;;;2264164;61;20479;-63
2022/12/10 05:11:06;0.00;0.00;0.62;0.00;0.00;0.62;7.00;5.00;;;19.20;22.90;;;;;;2264757;61;20887;-63
2022/12/10 05:13:52;0.00;0.00;0.62;0.00;0.00;0.62;6.10;5.00;;;19.20;22.90;;;;;;2264506;61;20791;-63
2022/12/10 05:16:37;0.00;0.00;0.62;0.00;0.00;0.62;7.13;5.20;;;19.20;22.90;;;;;;2264425;61;20876;-63
2022/12/10 05:19:25;0.00;0.00;0.62;0.00;0.00;0.62;8.80;6.13;;;19.10;22.80;;;;;;2264385;61;20380;-63
2022/12/10 05:25:14;0.00;0.00;0.62;0.00;0.00;0.62;5.87;4.93;;;19.10;22.80;;;;;;2264760;61;20434;-63
2022/12/10 05:27:59;0.00;0.00;0.62;0.00;0.00;0.62;6.67;5.00;;;19.10;22.80;;;;;;2263985;61;20356;-63
2022/12/10 05:30:43;0.00;0.00;0.62;0.00;0.00;0.62;5.63;4.50;;;19.10;22.90;;;;;;2264294;61;20392;-62
2022/12/10 05:33:28;0.00;0.00;0.62;0.00;0.00;0.62;7.63;5.93;;;19.10;22.80;;;;;;2264720;61;20345;-63
2022/12/10 05:36:18;0.00;0.00;0.62;0.00;0.00;0.62;5.97;4.43;;;19.10;22.90;;;;;;2264458;61;20418;-63
2022/12/10 05:39:03;0.00;0.00;0.62;0.00;0.00;0.62;6.27;5.03;;;19.10;22.90;;;;;;2264551;61;20384;-62
2022/12/10 05:41:48;0.00;0.00;0.62;0.00;0.00;0.62;5.70;4.50;;;19.10;22.90;;;;;;2264149;61;20416;-62
2022/12/10 05:44:33;0.00;0.00;0.62;0.00;0.00;0.62;7.53;5.10;;;19.10;22.90;;;;;;2263907;61;20856;-62
2022/12/10 05:47:17;0.00;0.00;0.62;0.00;0.00;0.62;6.60;5.03;;;19.00;22.80;;;;;;2264713;61;20372;-63
2022/12/10 05:50:03;0.00;0.00;0.62;0.00;0.00;0.62;5.90;4.60;;;19.00;22.80;;;;;;2263858;61;20434;-63
2022/12/10 05:52:52;0.00;0.00;0.62;0.00;0.00;0.62;5.27;4.60;;;19.00;22.80;;;;;;2264325;61;20429;-62
2022/12/10 05:55:40;0.00;0.00;0.62;0.00;0.00;0.62;6.67;5.50;;;19.00;22.80;;;;;;2264622;61;20965;-63
2022/12/10 05:58:26;0.00;0.00;0.62;0.00;0.00;0.62;5.97;4.97;;;19.00;22.80;;;;;;2263943;61;20378;-62
2022/12/10 06:01:15;0.00;0.00;0.62;0.00;0.00;0.62;5.70;4.77;;;19.00;22.80;;;;;;2264800;61;20998;-63
2022/12/10 06:04:03;0.00;0.00;0.62;0.00;0.00;0.62;6.47;4.70;;;19.00;22.80;;;;;;2264082;61;20392;-63
2022/12/10 06:06:49;0.00;0.00;0.62;0.00;0.00;0.62;6.37;4.60;;;19.00;22.80;;;;;;2264242;61;20499;-67
2022/12/10 06:09:35;0.00;0.00;0.62;0.00;0.00;0.62;6.27;4.40;;;19.00;22.80;;;;;;2264303;61;20383;-63
2022/12/10 06:12:20;0.00;0.00;0.62;0.00;0.00;0.62;5.13;4.00;;;19.00;22.90;;;;;;2262106;61;20413;-63
2022/12/10 06:15:06;0.00;0.00;0.62;0.00;0.00;0.62;5.80;4.37;;;19.00;23.50;;;;;;2264040;61;20480;-62
2022/12/10 06:17:51;0.00;0.00;0.62;0.00;0.00;0.62;6.30;4.23;;;18.90;22.90;;;;;;2267444;61;20361;-61
2022/12/10 06:20:39;0.00;0.00;0.62;0.00;0.00;0.62;5.23;4.03;;;18.90;22.90;;;;;;2264022;61;20407;-62
2022/12/10 06:23:24;0.00;0.00;0.62;0.00;0.00;0.62;4.57;3.50;;;18.90;22.90;;;;;;2264261;61;20383;-67
2022/12/10 06:26:12;0.00;0.00;0.62;0.00;0.00;0.62;5.80;4.57;;;18.90;23.00;;;;;;2262050;61;20403;-66
2022/12/10 06:28:57;0.00;0.00;0.62;0.00;0.00;0.62;5.13;3.90;;;18.90;22.90;;;;;;2366769;45;20388;-66
2022/12/10 06:31:42;0.00;0.00;0.62;0.00;0.00;0.62;4.70;4.20;;;18.90;23.00;;;;;;2264311;61;20359;-65
2022/12/10 06:34:26;0.00;0.00;0.62;0.00;0.00;0.62;4.20;3.17;;;18.90;22.90;;;;;;2263480;61;20915;-64
2022/12/10 06:37:12;0.00;0.00;0.62;0.00;0.00;0.62;5.40;3.83;;;18.90;23.00;;;;;;2264562;61;20378;-61
2022/12/10 06:39:56;0.00;0.00;0.62;0.00;0.00;0.62;4.40;3.20;;;18.90;23.00;;;;;;2264244;61;20460;-61
2022/12/10 06:42:42;0.00;0.00;0.62;0.00;0.00;0.62;4.87;3.67;;;18.90;22.90;;;;;;2263809;61;20368;-62
2022/12/10 06:45:27;0.00;0.00;0.62;0.00;0.00;0.62;4.70;3.87;;;18.90;22.90;;;;;;2264081;61;20750;-61
2022/12/10 06:48:11;0.00;0.00;0.62;0.00;0.00;0.62;5.20;4.47;;;18.90;22.90;;;;;;2263549;61;20414;-61
2022/12/10 06:50:56;0.00;0.00;0.62;0.00;0.00;0.62;5.00;3.80;;;18.90;22.90;;;;;;2264266;61;20360;-61
2022/12/10 06:53:41;0.00;0.00;0.62;0.00;0.00;0.62;4.53;3.53;;;18.90;22.80;;;;;;2264052;61;20934;-61
2022/12/10 06:56:26;0.00;0.00;0.62;0.00;0.00;0.62;6.93;3.97;;;18.90;22.80;;;;;;2263439;61;21014;-61
2022/12/10 06:59:13;0.00;0.00;0.62;0.00;0.00;0.62;4.70;3.20;;;18.90;22.80;;;;;;2264464;61;20383;-61
2022/12/10 07:01:58;0.00;0.00;0.62;0.00;0.00;0.62;4.97;3.17;;;18.90;22.90;;;;;;2264290;61;21059;-61
2022/12/10 07:04:43;0.00;0.00;0.62;0.00;0.00;0.62;3.30;2.80;;;18.90;22.80;;;;;;2263502;61;20929;-62
2022/12/10 07:07:27;0.00;0.00;0.62;0.00;0.00;0.62;4.73;3.23;;;18.90;22.80;;;;;;2264159;61;20368;-61
2022/12/10 07:10:12;0.00;0.00;0.62;0.00;0.00;0.62;3.63;2.70;;;18.90;22.90;;;;;;2264093;61;20400;-61
2022/12/10 07:12:57;0.00;0.00;0.62;0.00;0.00;0.62;3.30;2.27;;;18.90;22.90;;;;;;2264249;61;20993;-61
2022/12/10 07:15:43;0.00;0.00;0.62;0.00;0.00;0.62;3.63;2.60;;;18.90;22.90;;;;;;2263769;61;20383;-60
2022/12/10 07:18:27;0.00;0.00;0.62;0.00;0.00;0.62;3.30;2.80;;;18.90;23.00;;;;;;2263466;61;20367;-60
2022/12/10 07:21:17;0.00;0.00;0.62;0.00;0.00;0.62;3.03;2.20;;;19.00;23.00;;;;;;2264300;61;20765;-61
2022/12/10 07:24:05;0.00;0.00;0.62;0.00;0.00;0.62;3.97;2.40;;;18.90;23.00;;;;;;2264463;61;20882;-60
2022/12/10 07:26:50;0.00;0.00;0.62;0.00;0.00;0.62;3.17;2.60;;;18.90;23.00;;;;;;2263397;61;20363;-61
2022/12/10 07:29:35;0.00;0.00;0.62;0.00;0.00;0.62;3.37;2.63;;;18.90;23.50;;;;;;2264242;61;20487;-61
2022/12/10 07:32:21;0.00;0.00;0.62;0.00;0.00;0.62;2.73;1.97;;;19.00;23.00;;;;;;2264040;61;20815;-60
2022/12/10 07:35:06;0.00;0.00;0.62;0.00;0.00;0.62;2.43;2.10;;;19.00;23.00;;;;;;2264136;61;20977;-60
2022/12/10 07:37:51;0.00;0.00;0.62;0.00;0.00;0.62;3.10;1.83;;;19.00;23.00;;;;;;2264910;61;20417;-60
2022/12/10 07:40:36;0.00;0.00;0.62;0.00;0.00;0.62;2.00;1.60;;;19.00;23.00;;;;;;2264207;61;20425;-60
2022/12/10 07:43:21;0.00;0.00;0.62;0.00;0.00;0.62;3.67;2.47;;;19.00;23.00;;;;;;2264832;61;20356;-61
2022/12/10 07:46:08;0.00;0.00;0.62;0.00;0.00;0.62;3.03;2.20;;;19.00;23.00;;;;;;2264924;61;20364;-60
2022/12/10 07:48:54;0.00;0.00;0.62;0.00;0.00;0.62;2.30;1.80;;;19.00;23.00;;;;;;2263742;61;20383;-61
2022/12/10 07:51:39;0.00;0.00;0.62;0.00;0.00;0.62;2.33;1.80;;;19.00;23.00;;;;;;2265048;61;20400;-60
2022/12/10 07:54:24;0.00;0.00;0.62;0.00;0.00;0.62;2.20;1.83;;;19.00;23.00;;;;;;2264658;61;20802;-61
2022/12/10 07:57:09;0.00;0.00;0.62;0.00;0.00;0.62;2.97;2.33;;;19.00;23.00;;;;;;2264324;61;20364;-61
2022/12/10 07:59:53;0.00;0.00;0.62;0.00;0.00;0.62;2.60;1.80;;;19.00;23.00;;;;;;2264638;61;20423;-60
2022/12/10 08:02:38;0.00;0.00;0.62;0.00;0.00;0.62;2.13;1.60;;;19.00;23.00;;;;;;2264134;61;20487;-61
2022/12/10 08:05:24;0.00;0.00;0.62;0.00;0.00;0.62;2.90;2.10;;;19.00;23.00;;;;;;2264546;61;20898;-61
2022/12/10 08:08:09;0.00;0.00;0.62;0.00;0.00;0.62;2.43;1.77;;;19.00;23.00;;;;;;2264616;61;20360;-61
2022/12/10 08:10:54;0.00;0.00;0.62;0.00;0.00;0.62;2.10;1.70;;;19.00;23.00;;;;;;2263955;61;20418;-60
2022/12/10 08:13:38;0.00;0.00;0.62;0.00;0.00;0.62;2.60;1.80;;;19.00;22.90;;;;;;2264710;61;20434;-61
2022/12/10 08:16:27;0.00;0.00;0.62;0.00;0.00;0.62;2.27;1.70;;;19.00;23.00;;;;;;2264648;61;20264;-61
2022/12/10 08:19:12;0.00;0.00;0.62;0.00;0.00;0.62;3.03;2.37;;;19.00;22.90;;;;;;2264086;61;21051;-60
2022/12/10 08:21:59;0.00;0.00;0.62;0.00;0.00;0.62;2.40;1.70;;;19.10;23.00;;;;;;2264810;61;20892;-60
2022/12/10 08:24:44;0.00;0.00;0.62;0.00;0.00;0.62;2.80;1.77;;;19.10;23.00;;;;;;2264065;61;20903;-61
2022/12/10 08:27:29;0.00;0.00;0.62;0.00;0.00;0.62;2.30;1.83;;;19.10;23.00;;;;;;2264531;61;20379;-60
2022/12/10 08:30:13;0.00;0.00;0.62;0.00;0.00;0.62;1.70;1.30;;;19.10;23.00;;;;;;2264814;61;20907;-60
2022/12/10 08:32:58;0.00;0.00;0.62;0.00;0.00;0.62;1.63;1.23;;;19.10;23.00;;;;;;2263949;61;20461;-60
2022/12/10 08:35:43;0.00;0.00;0.62;0.00;0.00;0.62;2.30;1.60;;;19.10;23.00;;;;;;2264924;61;20445;-61
2022/12/10 08:38:30;0.00;0.00;0.62;0.00;0.00;0.62;3.10;1.60;;;19.10;23.00;;;;;;2264595;61;20368;-61
2022/12/10 08:41:18;0.00;0.00;0.62;0.00;0.00;0.62;1.87;1.40;;;19.10;23.00;;;;;;2264193;61;20360;-61
2022/12/10 08:44:03;0.00;0.00;0.62;0.00;0.00;0.62;1.90;1.50;;;19.10;23.00;;;;;;2264955;61;20402;-60
2022/12/10 08:46:48;0.00;0.00;0.62;0.00;0.00;0.62;2.50;1.67;;;19.10;23.00;;;;;;2264171;61;20360;-61
2022/12/10 08:49:32;0.00;0.00;0.62;0.00;0.00;0.62;2.20;1.83;;;19.10;22.90;;;;;;2264389;61;20785;-60
2022/12/10 08:52:17;0.00;0.00;0.62;0.00;0.00;0.62;2.40;1.70;;;19.10;23.00;;;;;;2264726;61;20418;-61
2022/12/10 08:55:05;0.00;0.00;0.62;0.00;0.00;0.62;1.93;1.37;;;19.10;23.00;;;;;;2263945;61;20388;-60
2022/12/10 08:57:50;0.00;0.00;0.62;0.00;0.00;0.62;2.40;1.60;;;19.10;22.90;;;;;;2264620;61;20429;-61
2022/12/10 09:00:35;0.00;0.00;0.62;0.00;0.00;0.62;2.07;1.57;;;19.10;22.90;;;;;;2264762;61;20445;-60
2022/12/10 09:03:20;0.00;0.00;0.62;0.00;0.00;0.62;1.70;1.40;;;19.20;23.00;;;;;;2264032;61;20375;-61
2022/12/10 09:06:07;0.00;0.00;0.62;0.00;0.00;0.62;2.13;1.70;;;19.20;23.00;;;;;;2264803;61;20376;-60
2022/12/10 09:08:52;0.00;0.00;0.62;0.00;0.00;0.62;2.40;1.77;;;19.20;23.00;;;;;;2263592;61;20376;-60
2022/12/10 09:11:39;0.00;0.00;0.62;0.00;0.00;0.62;1.90;1.43;;;19.20;23.50;;;;;;2264591;61;20368;-60
2022/12/10 09:14:25;0.00;0.00;0.62;0.00;0.00;0.62;2.63;2.07;;;19.20;23.00;;;;;;2264552;61;20388;-60
2022/12/10 09:17:09;0.00;0.00;0.62;0.00;0.00;0.62;2.33;1.63;;;19.20;23.00;;;;;;2263985;61;20422;-61
2022/12/10 09:19:54;0.00;0.00;0.62;0.00;0.00;0.62;2.00;1.40;;;19.20;23.00;;;;;;2264842;61;20482;-61
2022/12/10 09:22:38;0.00;0.00;0.62;0.00;0.00;0.62;1.90;1.47;;;19.20;23.00;;;;;;2264716;61;20364;-61
2022/12/10 09:25:23;0.00;0.00;0.62;0.00;0.00;0.62;1.97;1.20;;;19.20;22.90;;;;;;2263982;61;20467;-61
2022/12/10 09:28:09;0.00;0.00;0.62;0.00;0.00;0.62;2.23;1.50;;;19.20;22.90;;;;;;2264579;61;20769;-60
2022/12/10 09:30:58;0.00;0.00;0.62;0.00;0.00;0.62;2.10;1.20;;;19.20;22.90;;;;;;2264242;61;20368;-61
2022/12/10 09:33:43;0.00;0.00;0.62;0.00;0.00;0.62;2.90;1.70;;;19.20;22.90;;;;;;2264089;61;20453;-61
2022/12/10 09:36:28;0.00;0.00;0.62;0.00;0.00;0.62;2.03;1.50;;;19.20;22.90;;;;;;2264642;61;20406;-61
2022/12/10 09:39:13;0.00;0.00;0.62;0.00;0.00;0.62;2.10;1.27;;;19.20;22.90;;;;;;2263276;61;20391;-61
2022/12/10 09:42:17;0.00;0.00;0.62;0.00;0.00;0.62;2.20;1.47;;;19.20;22.90;;;;;;2264599;61;20404;-61
2022/12/10 09:45:12;0.00;0.00;0.62;0.00;0.00;0.62;2.87;1.30;;;19.20;23.00;;;;;;2264594;61;20360;-60
2022/12/10 09:48:05;0.00;0.00;0.62;0.00;0.00;0.62;2.00;1.33;;;19.20;22.90;;;;;;2263706;61;20757;-60
2022/12/10 09:50:58;0.00;0.00;0.62;0.00;0.00;0.62;1.87;1.30;;;19.20;22.90;;;;;;2264631;61;20392;-61
2022/12/10 09:53:44;0.00;0.00;0.62;0.00;0.00;0.62;1.70;1.13;;;19.20;22.90;;;;;;2263741;61;20356;-60
2022/12/10 09:56:34;0.00;0.00;0.62;0.00;0.00;0.62;1.50;1.10;;;19.30;23.00;;;;;;2264527;61;20360;-61
2022/12/10 09:59:23;0.00;0.00;0.62;0.00;0.00;0.62;1.87;1.23;;;19.20;22.90;;;;;;2264488;61;20376;-61
2022/12/10 10:02:21;0.00;0.00;0.62;0.00;0.00;0.62;1.90;1.20;;;19.30;23.00;;;;;;2263631;61;20375;-60
2022/12/10 10:05:16;0.00;0.00;0.62;0.00;0.00;0.62;1.67;1.07;;;19.30;23.00;;;;;;2264491;61;20474;-61
2022/12/10 10:08:04;0.00;0.00;0.62;0.00;0.00;0.62;1.90;1.10;;;19.30;23.00;;;;;;2263683;61;20771;-61
2022/12/10 10:10:49;0.00;0.00;0.62;0.00;0.00;0.62;1.60;1.00;;;19.30;23.00;;;;;;2264555;61;20352;-60
2022/12/10 10:13:38;0.00;0.00;0.62;0.00;0.00;0.62;1.80;1.10;;;19.30;23.00;;;;;;2264057;61;20391;-60
2022/12/10 10:16:27;0.00;0.00;0.62;0.00;0.00;0.62;1.90;1.30;;;19.30;23.00;;;;;;2263565;61;20360;-60
2022/12/10 10:19:17;0.00;0.00;0.62;0.00;0.00;0.62;1.80;1.17;;;19.30;22.90;;;;;;2264506;61;20419;-61
2022/12/10 10:22:03;0.00;0.00;0.62;0.00;0.00;0.62;1.77;1.20;;;19.30;22.90;;;;;;2264707;61;20364;-60
2022/12/10 10:24:48;0.00;0.00;0.62;0.00;0.00;0.62;2.07;1.33;;;19.30;22.90;;;;;;2263865;61;20367;-61
2022/12/10 10:27:33;0.00;0.00;0.62;0.00;0.00;0.62;2.10;1.40;;;19.30;22.90;;;;;;2264372;61;20762;-61
2022/12/10 10:30:21;0.00;0.00;0.62;0.00;0.00;0.62;1.90;1.20;;;19.30;23.00;;;;;;2263835;61;20391;-60
2022/12/10 10:33:10;0.00;0.00;0.62;0.00;0.00;0.62;1.53;1.07;;;19.30;22.90;;;;;;2264201;61;20871;-60
2022/12/10 10:35:59;0.00;0.00;0.62;0.00;0.00;0.62;1.47;1.10;;;19.30;22.90;;;;;;2264442;61;20403;-60
2022/12/10 10:38:48;0.00;0.00;0.62;0.00;0.00;0.62;1.50;0.93;;;19.30;22.90;;;;;;2263407;61;20940;-61
2022/12/10 10:41:39;0.00;0.00;0.62;0.00;0.00;0.62;2.27;1.53;;;19.30;22.90;;;;;;2264388;61;20415;-61
2022/12/10 10:44:27;0.00;0.00;0.62;0.00;0.00;0.62;1.93;1.00;;;19.30;22.90;;;;;;2263974;61;20372;-61
2022/12/10 10:47:27;0.00;0.00;0.62;0.00;0.00;0.62;1.90;1.30;;;19.30;22.90;;;;;;2263871;61;20449;-61
2022/12/10 10:50:25;0.00;0.00;0.62;0.00;0.00;0.62;1.73;1.30;;;19.30;22.90;;;;;;2264243;61;20383;-61
2022/12/10 10:53:42;0.00;0.00;0.62;0.00;0.00;0.62;1.60;0.90;;;19.30;22.90;;;;;;2263797;61;20356;-61
2022/12/10 10:56:31;0.00;0.00;0.62;0.00;0.00;0.62;1.90;1.10;;;19.30;22.90;;;;;;2264349;61;20418;-61
2022/12/10 10:59:33;0.00;0.00;0.62;0.00;0.00;0.62;1.60;1.20;;;19.30;22.90;;;;;;2264107;61;20376;-61
2022/12/10 11:02:26;0.00;0.00;0.62;0.00;0.00;0.62;1.70;1.00;;;19.30;22.90;;;;;;2263937;61;20876;-60
2022/12/10 11:05:20;0.00;0.00;0.62;0.00;0.00;0.62;1.70;1.30;;;19.30;22.90;;;;;;2264424;61;20934;-61
2022/12/10 11:08:15;0.00;0.00;0.62;0.00;0.00;0.62;1.70;1.17;;;19.30;22.90;;;;;;2263268;61;20356;-61
2022/12/10 11:11:05;0.00;0.00;0.62;0.00;0.00;0.62;1.60;1.20;;;19.40;23.00;;;;;;2264180;61;20427;-61
2022/12/10 11:13:51;0.00;0.00;0.62;0.00;0.00;0.62;1.60;1.10;;;19.40;23.00;;;;;;2264154;61;20427;-61